createdAt,value
2022-08-17T00:00:34.862Z,47.71
2022-08-17T00:03:10.425Z,47.88
2022-08-17T00:06:07.576Z,48.02
2022-08-17T00:08:40.320Z,48.40
2022-08-17T00:11:16.375Z,48.72
2022-08-17T00:13:49.091Z,48.95
2022-08-17T00:16:50.464Z,49.18
2022-08-17T00:19:25.190Z,49.51
2022-08-17T00:22:35.265Z,49.51
2022-08-17T00:24:42.711Z,49.71
2022-08-17T00:27:09.345Z,49.67
2022-08-17T00:29:36.770Z,49.72
2022-08-17T00:33:12.356Z,49.82
2022-08-17T00:34:50.553Z,49.83
2022-08-17T00:37:17.202Z,49.88
2022-08-17T00:39:44.181Z,49.89
2022-08-17T00:42:17.222Z,49.85
2022-08-17T00:44:44.668Z,49.74
2022-08-17T00:47:11.369Z,49.69
2022-08-17T00:49:37.994Z,49.64
2022-08-17T00:52:15.588Z,49.49
2022-08-17T00:54:47.186Z,49.26
2022-08-17T00:57:23.687Z,49.44
2022-08-17T01:00:03.214Z,49.56
2022-08-17T01:02:42.022Z,49.72
2022-08-17T01:05:21.363Z,49.73
2022-08-17T01:07:50.973Z,49.77
2022-08-17T01:11:00.004Z,49.67
2022-08-17T01:13:10.778Z,49.70
2022-08-17T01:15:46.920Z,49.85
2022-08-17T01:18:14.321Z,49.99
2022-08-17T01:20:49.062Z,50.12
2022-08-17T01:23:21.023Z,50.24
2022-08-17T01:26:01.825Z,50.39
2022-08-17T01:28:33.592Z,50.58
2022-08-17T01:31:18.475Z,50.69
2022-08-17T01:33:45.593Z,50.72
2022-08-17T01:36:12.328Z,50.78
2022-08-17T01:38:40.453Z,50.89
2022-08-17T01:41:12.733Z,51.00
2022-08-17T01:43:58.025Z,51.12
2022-08-17T01:46:28.719Z,51.31
2022-08-17T01:48:57.587Z,51.45
2022-08-17T01:51:32.722Z,51.66
2022-08-17T01:54:05.495Z,51.86
2022-08-17T01:56:35.837Z,52.11
2022-08-17T01:59:03.760Z,52.33
2022-08-17T02:01:34.640Z,52.62
2022-08-17T02:04:02.229Z,53.21
2022-08-17T02:06:47.071Z,53.21
2022-08-17T02:09:25.320Z,53.31
2022-08-17T02:11:54.245Z,53.32
2022-08-17T02:14:22.717Z,53.20
2022-08-17T02:16:50.069Z,53.14
2022-08-17T02:19:17.560Z,53.12
2022-08-17T02:21:48.307Z,53.13
2022-08-17T02:25:00.359Z,53.22
2022-08-17T02:27:13.716Z,53.24
2022-08-17T02:29:40.526Z,53.37
2022-08-17T02:32:25.449Z,53.40
2022-08-17T02:34:57.102Z,53.64
2022-08-17T02:37:26.335Z,53.75
2022-08-17T02:39:53.087Z,53.80
2022-08-17T02:42:27.780Z,53.72
2022-08-17T02:44:54.788Z,53.86
2022-08-17T02:47:21.448Z,53.98
2022-08-17T02:49:54.195Z,54.04
2022-08-17T02:52:53.520Z,54.19
2022-08-17T02:55:25.326Z,54.28
2022-08-17T02:57:52.825Z,54.21
2022-08-17T03:00:28.868Z,54.02
2022-08-17T03:02:57.307Z,54.07
2022-08-17T03:05:28.177Z,54.14
2022-08-17T03:07:55.294Z,54.29
2022-08-17T03:10:24.606Z,54.46
2022-08-17T03:12:53.124Z,54.52
2022-08-17T03:15:22.569Z,54.60
2022-08-17T03:17:49.589Z,54.73
2022-08-17T03:20:17.334Z,54.85
2022-08-17T03:22:53.538Z,54.93
2022-08-17T03:25:29.071Z,55.06
2022-08-17T03:27:57.385Z,55.20
2022-08-17T03:30:27.040Z,55.31
2022-08-17T03:32:58.416Z,55.40
2022-08-17T03:35:29.593Z,55.48
2022-08-17T03:38:00.269Z,55.49
2022-08-17T03:40:55.463Z,55.51
2022-08-17T03:43:16.483Z,55.48
2022-08-17T03:46:02.595Z,55.51
2022-08-17T03:48:48.148Z,55.54
2022-08-17T03:51:39.616Z,55.62
2022-08-17T03:54:26.216Z,55.68
2022-08-17T03:57:19.495Z,55.73
2022-08-17T03:59:46.703Z,55.82
2022-08-17T04:02:31.109Z,55.90
2022-08-17T04:04:59.112Z,56.00
2022-08-17T04:07:29.799Z,56.05
2022-08-17T04:09:58.193Z,56.10
2022-08-17T04:12:30.519Z,56.15
2022-08-17T04:14:57.457Z,56.19
2022-08-17T04:17:28.640Z,56.27
2022-08-17T04:19:56.293Z,56.36
2022-08-17T04:22:30.277Z,56.46
2022-08-17T04:25:10.104Z,56.50
2022-08-17T04:27:36.841Z,56.50
2022-08-17T04:30:07.373Z,56.53
2022-08-17T04:33:06.105Z,56.48
2022-08-17T04:36:00.456Z,56.40
2022-08-17T04:38:31.453Z,56.32
2022-08-17T04:41:18.810Z,56.36
2022-08-17T04:43:48.373Z,56.39
2022-08-17T04:46:19.774Z,56.40
2022-08-17T04:48:54.835Z,56.47
2022-08-17T04:51:35.882Z,56.53
2022-08-17T04:54:08.021Z,56.60
2022-08-17T04:56:35.571Z,56.68
2022-08-17T04:59:19.337Z,56.72
2022-08-17T05:01:49.809Z,56.83
2022-08-17T05:04:33.937Z,56.87
2022-08-17T05:07:04.209Z,56.88
2022-08-17T05:09:31.435Z,56.92
2022-08-17T05:12:02.399Z,56.90
2022-08-17T05:14:32.840Z,56.90
2022-08-17T05:17:01.212Z,56.98
2022-08-17T05:19:28.843Z,56.92
2022-08-17T05:21:55.498Z,56.91
2022-08-17T05:24:38.321Z,56.92
2022-08-17T05:27:06.328Z,56.91
2022-08-17T05:29:35.599Z,56.88
2022-08-17T05:32:38.089Z,56.78
2022-08-17T05:35:01.015Z,56.66
2022-08-17T05:37:28.305Z,56.51
2022-08-17T05:39:55.156Z,56.38
2022-08-17T05:42:22.744Z,56.13
2022-08-17T05:44:49.434Z,55.97
2022-08-17T05:47:16.817Z,55.75
2022-08-17T05:49:43.497Z,55.43
2022-08-17T05:52:48.234Z,55.38
2022-08-17T05:55:37.612Z,55.16
2022-08-17T05:58:37.817Z,54.83
2022-08-17T06:01:30.206Z,52.99
2022-08-17T06:04:00.492Z,48.51
2022-08-17T06:06:41.123Z,46.01
2022-08-17T06:09:33.965Z,43.22
2022-08-17T06:12:14.352Z,41.33
2022-08-17T06:15:11.359Z,39.61
2022-08-17T06:17:38.403Z,37.65
2022-08-17T06:20:13.755Z,36.16
2022-08-17T06:22:56.676Z,34.53
2022-08-17T06:25:37.949Z,33.46
2022-08-17T06:28:07.939Z,32.73
2022-08-17T06:30:58.659Z,32.01
2022-08-17T06:33:35.571Z,30.92
2022-08-17T06:36:43.014Z,29.67
2022-08-17T06:39:47.390Z,28.41
2022-08-17T06:43:02.780Z,26.54
2022-08-17T06:45:38.042Z,28.29
2022-08-17T06:48:12.479Z,27.71
2022-08-17T06:50:48.157Z,27.94
2022-08-17T06:53:30.079Z,27.49
2022-08-17T06:56:11.490Z,27.43
2022-08-17T06:58:42.987Z,26.59
2022-08-17T07:01:21.093Z,26.42
2022-08-17T07:04:11.950Z,25.14
2022-08-17T07:06:54.781Z,25.02
2022-08-17T07:09:52.911Z,24.92
2022-08-17T07:12:25.214Z,24.82
2022-08-17T07:15:21.684Z,25.28
2022-08-17T07:17:48.691Z,25.69
2022-08-17T07:20:22.827Z,26.13
2022-08-17T07:23:05.518Z,26.27
2022-08-17T07:25:32.812Z,27.48
2022-08-17T07:28:07.020Z,28.15
2022-08-17T07:30:47.059Z,29.11
2022-08-17T07:33:29.847Z,30.15
2022-08-17T07:35:58.133Z,30.57
2022-08-17T07:38:29.285Z,30.76
2022-08-17T07:41:05.871Z,31.16
2022-08-17T07:43:41.277Z,31.96
2022-08-17T07:46:53.766Z,32.66
2022-08-17T07:49:34.761Z,33.41
2022-08-17T07:52:47.509Z,33.73
2022-08-17T07:54:54.690Z,34.04
2022-08-17T07:57:25.428Z,33.38
2022-08-17T08:00:03.195Z,31.76
2022-08-17T08:02:44.477Z,29.71
2022-08-17T08:05:29.911Z,29.79
2022-08-17T08:08:33.635Z,29.33
2022-08-17T08:11:15.530Z,29.07
2022-08-17T08:13:45.817Z,28.33
2022-08-17T08:16:26.411Z,27.80
2022-08-17T08:18:58.345Z,27.35
2022-08-17T08:21:41.749Z,26.67
2022-08-17T08:24:24.685Z,25.90
2022-08-17T08:27:10.017Z,23.92
2022-08-17T08:30:19.256Z,24.69
2022-08-17T08:33:31.975Z,25.02
2022-08-17T08:37:14.761Z,24.60
2022-08-17T08:39:57.062Z,23.01
2022-08-17T08:43:12.548Z,21.40
2022-08-17T08:46:03.658Z,22.64
2022-08-17T08:48:58.443Z,22.37
2022-08-17T08:51:56.414Z,22.16
2022-08-17T08:54:44.379Z,21.89
2022-08-17T08:57:33.478Z,22.43
2022-08-17T09:00:21.644Z,21.19
2022-08-17T09:03:43.812Z,20.38
2022-08-17T09:07:13.594Z,20.55
2022-08-17T09:10:21.536Z,21.39
2022-08-17T09:13:19.271Z,20.80
2022-08-17T09:15:59.157Z,19.12
2022-08-17T09:19:01.700Z,19.19
2022-08-17T09:21:52.665Z,19.38
2022-08-17T09:24:31.254Z,18.41
2022-08-17T09:27:22.596Z,18.27
2022-08-17T09:29:57.789Z,18.00
2022-08-17T09:32:42.108Z,18.43
2022-08-17T09:35:37.333Z,19.04
2022-08-17T09:38:37.373Z,18.63
2022-08-17T09:41:48.723Z,17.93
2022-08-17T09:44:40.627Z,17.54
2022-08-17T09:47:33.140Z,16.49
2022-08-17T09:50:11.557Z,17.10
2022-08-17T09:52:38.226Z,17.78
2022-08-17T09:55:06.519Z,17.56
2022-08-17T09:58:08.636Z,17.38
2022-08-17T10:00:42.027Z,17.70
2022-08-17T10:03:17.185Z,18.05
2022-08-17T10:06:02.777Z,18.07
2022-08-17T10:09:08.597Z,18.64
2022-08-17T10:12:10.429Z,18.99
2022-08-17T10:14:56.661Z,20.23
2022-08-17T10:17:51.106Z,21.17
2022-08-17T10:20:31.745Z,22.03
2022-08-17T10:23:30.519Z,22.05
2022-08-17T10:26:14.163Z,22.07
2022-08-17T10:29:09.745Z,22.11
2022-08-17T10:31:44.856Z,22.30
2022-08-17T10:34:41.583Z,22.59
2022-08-17T10:37:33.916Z,22.94
2022-08-17T10:40:46.597Z,22.91
2022-08-17T10:44:36.723Z,23.17
2022-08-17T10:46:56.581Z,23.83
2022-08-17T10:49:34.970Z,24.28
2022-08-17T10:52:24.933Z,24.54
2022-08-17T10:54:51.842Z,24.59
2022-08-17T10:57:31.887Z,24.39
2022-08-17T11:00:17.422Z,24.49
2022-08-17T11:02:54.741Z,24.59
2022-08-17T11:06:02.075Z,24.74
2022-08-17T11:08:57.162Z,24.77
2022-08-17T11:12:12.095Z,25.02
2022-08-17T11:14:56.327Z,25.15
2022-08-17T11:18:02.866Z,24.98
2022-08-17T11:20:57.647Z,24.87
2022-08-17T11:23:33.493Z,24.74
2022-08-17T11:26:04.218Z,24.96
2022-08-17T11:28:52.761Z,25.44
2022-08-17T11:31:43.845Z,25.91
2022-08-17T11:34:26.295Z,25.83
2022-08-17T11:37:38.716Z,25.94
2022-08-17T11:40:36.982Z,26.40
2022-08-17T11:43:29.268Z,26.59
